D/T METAR WX W/DIR W/SPE G/SPE TEMP DEWP
7/12/19 23:50 EGDM 072350Z AUTO 21027G37KT 9999 OVC011/// 10/08 Q1004 SSW (210°) 31.1mph 42.6mph 10°C 8°C
7/12/19 22:50 EGDM 072250Z AUTO 21020G30KT 9999 OVC005/// 10/08 Q1006 SSW (210°) 23.0mph 34.5mph 10°C 8°C
7/12/19 21:50 EGDM 072150Z AUTO 20018KT 9999 OVC008/// 10/09 Q1008 SSW (200°) 20.7mph 10°C 9°C
7/12/19 20:50 EGDM 072050Z AUTO 22020KT 9999 OVC008/// 10/08 Q1009 SW (220°) 23.0mph 10°C 8°C
7/12/19 19:50 EGDM 071950Z AUTO 20014KT 9999 OVC009/// 09/08 Q1010 SSW (200°) 16.1mph 9°C 8°C
7/12/19 18:50 EGDM 071850Z AUTO 21009KT 9999 OVC012/// 09/07 Q1011 SSW (210°) 10.4mph 9°C 7°C
7/12/19 17:50 EGDM 071750Z AUTO 23013KT 9999 BKN015/// 09/07 Q1012 SW (230°) 15.0mph 9°C 7°C
7/12/19 16:50 EGDM 071650Z AUTO 22008KT 9999 OVC017/// 09/07 Q1012 SW (220°) 9.2mph 9°C 7°C
7/12/19 15:50 EGDM 071550Z 22010KT 9999 FEW017 BKN022 09/06 Q1013 NOSIG RMK WHT WHT SW (220°) 11.5mph 9°C 6°C
7/12/19 15:20 EGDM 071520Z 22006KT 9999 SCT018 BKN024 09/07 Q1013 NOSIG RMK WHT WHT SW (220°) 6.9mph 9°C 7°C
7/12/19 14:50 EGDM 071450Z 24009KT 9999 BKN020 10/06 Q1013 NOSIG RMK WHT WHT WSW (240°) 10.4mph 10°C 6°C
7/12/19 14:20 EGDM 071420Z 24012KT 9999 BKN020 10/06 Q1013 NOSIG RMK WHT WHT WSW (240°) 13.8mph 10°C 6°C
7/12/19 13:50 EGDM 071350Z 23010KT 9999 BKN022 10/06 Q1013 NOSIG RMK WHT WHT SW (230°) 11.5mph 10°C 6°C
7/12/19 12:50 EGDM 071250Z 24011KT 9999 SCT020 BKN026 10/06 Q1014 TEMPO FEW020 RMK WHT TEMPO BLU WSW (240°) 12.7mph 10°C 6°C
7/12/19 11:50 EGDM 071150Z 23010KT 9999 FEW020 BKN250 10/06 Q1014 TEMPO SCT022 RMK BLU TEMPO WHT SW (230°) 11.5mph 10°C 6°C
7/12/19 11:20 EGDM 071120Z 24012KT 9999 FEW018 BKN250 10/06 Q1014 NOSIG RMK BLU BLU WSW (240°) 13.8mph 10°C 6°C
7/12/19 10:50 EGDM 071050Z 23010KT 9999 FEW014 SCT250 10/07 Q1014 NOSIG RMK BLU BLU SW (230°) 11.5mph 10°C 7°C
7/12/19 10:20 EGDM 071020Z 23008KT 9999 FEW030 SCT250 09/06 Q1014 NOSIG RMK BLU BLU SW (230°) 9.2mph 9°C 6°C
7/12/19 09:50 EGDM 070950Z 23010KT 9999 FEW030 SCT250 08/06 Q1014 NOSIG RMK BLU BLU SW (230°) 11.5mph 8°C 6°C
7/12/19 09:20 EGDM 070920Z 23009KT 9999 FEW015 BKN030 08/06 Q1014 NOSIG RMK BLU BLU SW (230°) 10.4mph 8°C 6°C
7/12/19 08:50 EGDM 070850Z 23008KT 9999 FEW015 BKN030 08/06 Q1014 NOSIG RMK BLU BLU SW (230°) 9.2mph 8°C 6°C
7/12/19 07:50 EGDM 070750Z 24007KT 9999 FEW014 BKN032 08/06 Q1015 RMK BLU WSW (240°) 8.1mph 8°C 6°C
7/12/19 06:50 EGDM 070650Z AUTO 25008KT 9999 OVC031/// 08/07 Q1014 WSW (250°) 9.2mph 8°C 7°C
7/12/19 05:50 EGDM 070550Z AUTO 24007KT 9999 BKN034/// 07/06 Q1013 WSW (240°) 8.1mph 7°C 6°C
7/12/19 04:50 EGDM 070450Z AUTO 24008KT 9999 BKN035/// 07/06 Q1012 WSW (240°) 9.2mph 7°C 6°C
7/12/19 03:50 EGDM 070350Z AUTO 24006KT 9999 OVC035/// 07/06 Q1012 WSW (240°) 6.9mph 7°C 6°C
7/12/19 02:50 EGDM 070250Z AUTO 27009KT 9999 OVC034/// 08/06 Q1012 W (270°) 10.4mph 8°C 6°C
7/12/19 01:50 EGDM 070150Z AUTO 26009KT 9999 BKN035/// 08/06 Q1011 W (260°) 10.4mph 8°C 6°C
7/12/19 00:50 EGDM 070050Z AUTO 26010KT 9999 BKN034/// 08/06 Q1011 W (260°) 11.5mph 8°C 6°C
6/12/19 23:50 EGDM 062350Z AUTO 26012KT 9999 BKN037/// 08/06 Q1010 W (260°) 13.8mph 8°C 6°C
6/12/19 22:50 EGDM 062250Z AUTO 26012KT 9999 OVC037/// 09/06 Q1010 W (260°) 13.8mph 9°C 6°C
6/12/19 21:50 EGDM 062150Z AUTO 25007KT 9999 BKN037/// 08/06 Q1010 WSW (250°) 8.1mph 8°C 6°C
6/12/19 20:50 EGDM 062050Z AUTO 27013KT 9999 BKN036/// 08/06 Q1008 W (270°) 15.0mph 8°C 6°C
6/12/19 19:50 EGDM 061950Z AUTO 26009KT 9999 FEW020/// 09/06 Q1008 W (260°) 10.4mph 9°C 6°C
6/12/19 18:50 EGDM 061850Z AUTO 28017KT 9999 FEW020/// SCT039/// 09/06 Q1006 W (280°) 19.6mph 9°C 6°C
6/12/19 17:50 EGDM 061750Z AUTO 27016KT 9999 FEW021/// SCT039/// 09/06 Q1005 W (270°) 18.4mph 9°C 6°C
6/12/19 16:50 EGDM 061650Z AUTO 28017KT 9999 FEW020/// BKN037/// 10/07 Q1004 RERA W (280°) 19.6mph 10°C 7°C
6/12/19 15:50 EGDM 061550Z 25017KT 9999 VCSH BKN020 BKN030 10/08 Q1003 RMK WHT VCSH WSW (250°) 19.6mph 10°C 8°C
6/12/19 15:20 EGDM 061520Z 26017KT 9999 SCT018 BKN030 11/08 Q1003 TEMPO 7000 -SHRA SCT014 RMK WHT TEMPO GRN W (260°) 19.6mph 11°C 8°C
6/12/19 14:50 EGDM 061450Z 26020G30KT 9999 SCT016 SCT023 12/08 Q1002 TEMPO 5000 -SHRA SCT014 RMK WHT TEMPO GRN W (260°) 23.0mph 34.5mph 12°C 8°C
6/12/19 14:20 EGDM 061420Z 24023G34KT 9999 SCT014 SCT025 12/09 Q1002 TEMPO 5000 -SHRA RMK GRN TEMPO GRN WSW (240°) 26.5mph 39.1mph 12°C 9°C
6/12/19 13:50 EGDM 061350Z 24018KT 9999 VCSH SCT012 BKN023 11/10 Q1002 TEMPO 5000 -SHRA RMK GRN TEMPO GRN VCSH WSW (240°) 20.7mph 11°C 10°C
6/12/19 13:42 EGDM 061342Z 24017KT 3000 -SHRA BKN010 OVC020 11/10 Q1003 BECMG 9999 NSW FEW010 BKN025 RMK YLO1 BECMG BLU -SHRA WSW (240°) 19.6mph 11°C 10°C
6/12/19 12:50 EGDM 061250Z 24015KT 9999 SCT025 BKN035 12/09 Q1004 TEMPO 7000 -SHRA SCT022 RMK BLU TEMPO WHT WSW (240°) 17.3mph 12°C 9°C
6/12/19 12:20 EGDM 061220Z 24015KT 9999 FEW012 BKN035 12/09 Q1004 TEMPO 7000 -SHRA SCT020 RMK BLU TEMPO WHT WSW (240°) 17.3mph 12°C 9°C
6/12/19 11:50 EGDM 061150Z 24018KT 9999 FEW010 BKN035 12/09 Q1004 TEMPO SCT018 RMK BLU TEMPO WHT WSW (240°) 20.7mph 12°C 9°C
6/12/19 11:20 EGDM 061120Z 24017KT 9999 FEW010 BKN018 BKN032 12/11 Q1005 BECMG FEW018 BKN030 RMK WHT BECMG BLU WSW (240°) 19.6mph 12°C 11°C
6/12/19 10:50 EGDM 061050Z 23015KT 4000 -DZ BKN008 OVC015 12/11 Q1005 BECMG 6000 OVC018 RMK GRN BECMG WHT -DZ SW (230°) 17.3mph 12°C 11°C